Historyczne dane pomiarowe

Dodano dane terminowe – wersja testowa.

Dane z okresu 1951-2019

Wersja bazy: 1.34 [2019-03-16, lista zmian], aktualizacja planowana na 2019-04-15

Dane meteo z obszaru Polski uzyskane na podstawie danych udostępnionych przez Instytut Meteorologii i Gospodarki Wodnej – Państwowy Instytut Badawczy.

 

Wybierz Datę:    

       

TemperaturaWilgotnośćWiatrCiśnienieOpadyŚniegCzas trwania zjawisk
 Stacja t tx tn tng RH VA  wxwx mslp ppp RRR   cm mm wxwxwxwxwxwxwx
1983-08-14 13.6 19.9 8.0 6.5-- 6.0 3.0---- 0.0------------
1983-08-13 15.2 21.2 13.0 12.2-- 5.0 5.0---- 1.2------------
1983-08-12 19.8 26.6 12.5 10.4-- 1.3 4.0---- 8.0------------
1983-08-11 20.5 27.3 12.0 10.5-- 2.0 0.7---- 0.0------------
1983-08-10 21.2 26.3 15.0 13.6-- 1.0 2.0---- 0.0------------
1983-08-09 19.9 26.8 12.6 11.6-- 1.3 0.7---- 0.0------------
1983-08-08 19.3 25.9 16.0 14.8-- 4.3 2.0---- 1.6------------
1983-08-07 17.7 23.3 12.6 10.7-- 5.3 1.0---- 11.8------------
1983-08-06 16.4 22.2 11.0 9.5-- 6.0 2.7---- 0.5------------
1983-08-05 14.2 19.4 10.3 11.0-- 6.7 3.3---- 0.0------------
1983-08-04 12.8 15.1 11.3 12.0-- 8.0 3.0---- 0.0------------
1983-08-03 15.8 19.8 14.4 14.8-- 8.0 4.3---- 5.5------------
1983-08-02 21.5 27.2 17.0 15.5-- 6.3 4.0---- 7.0------------
1983-08-01 22.4 32.0 12.0 8.2-- 0.0 5.0---- 0.0------------
1983-07-31 18.2 26.6 7.5 6.3-- 0.0 1.3---- 0.0------------
1983-07-30 17.5 21.8 15.2 15.0-- 5.3 5.7---- 0.0------------
1983-07-29 18.6 25.1 11.0 10.0-- 4.3 4.0---- 1.8------------
1983-07-28 22.8 28.4 16.4 15.3-- 1.7 5.3---- 0.0------------
1983-07-27 23.4 33.6 11.7 10.5-- 3.0 0.7---- 0.0------------
1983-07-26 20.8 27.6 10.5 8.6-- 0.0 1.3---- 0.0------------
1983-07-25 17.6 25.3 7.2 6.6-- 0.7 0.0---- 0.0------------
1983-07-24 16.8 22.3 13.0 11.0-- 4.7 1.0---- 10.6------------
1983-07-23 18.7 25.1 11.8 10.8-- 2.0 4.7---- 0.0------------
1983-07-22 13.3 16.8 9.1 8.5-- 6.0 5.0---- 1.5------------
1983-07-21 14.7 19.7 7.0 6.4-- 2.0 5.7---- 0.0------------
1983-07-20 14.9 22.9 11.5 11.5-- 5.7 2.7---- 3.7------------
1983-07-19 22.4 29.1 17.3 16.8-- 6.0 3.0---- 4.7------------
1983-07-18 24.1 33.0 13.0 11.0-- 0.7 2.3---- 0.0------------
1983-07-17 20.6 26.3 12.5 11.5-- 0.7 1.3---- 0.0------------
1983-07-16 19.4 25.3 13.5 12.5-- 4.7 1.7---- 4.4------------
1983-07-15 19.5 27.1 9.0 7.5-- 1.0 2.3---- 0.0------------
1983-07-14 21.0 27.8 17.2 17.0-- 4.3 3.0---- 0.0------------
1983-07-13 21.3 27.1 14.6 14.2-- 2.7 4.7---- 0.9------------
1983-07-12 22.5 30.6 17.6 17.0-- 6.3 4.7---- 6.2------------
1983-07-11 23.7 31.0 16.5 15.0-- 3.7 3.3---- 0.0------------
1983-07-10 24.9 31.5 15.5 14.6-- 0.7 3.0---- 0.0------------
1983-07-09 22.5 28.6 13.8 12.5-- 0.7 2.7---- 0.0------------
1983-07-08 20.8 28.0 12.5 11.2-- 0.0 2.0---- 0.0------------
1983-07-07 22.6 28.5 15.2 14.2-- 0.0 3.7---- 0.0------------
1983-07-06 22.1 29.5 11.5 10.2-- 0.0 3.0---- 0.0------------
1983-07-05 19.6 25.6 10.4 8.0-- 0.0 1.3---- 0.0------------
1983-07-04 19.8 26.6 12.5 11.0-- 1.3 2.7---- 0.0------------
1983-07-03 18.5 25.1 8.6 7.5-- 1.7 0.7---- 0.0------------
1983-07-02 17.7 22.6 12.5 12.0-- 2.7 2.3---- 0.0------------
1983-07-01 19.8 26.8 12.0 10.0-- 2.7 2.0---- 1.0------------
1983-06-30 19.3 24.4 12.5 11.0-- 1.3 3.0---- 0.0------------
1983-06-29 13.9 19.7 7.0 6.5-- 3.3 3.3---- 0.0------------
1983-06-28 15.7 20.7 13.4 13.0-- 3.3 2.3---- 0.0------------
1983-06-27 18.0 23.7 13.3 11.6-- 2.7 0.7---- 33.6------------
1983-06-26 20.2 26.1 9.0 8.5-- 0.7 2.0---- 0.0------------
1983-06-25 20.7 29.7 9.2 7.2-- 1.3 3.0---- 0.0------------
1983-06-24 18.8 28.5 6.0 3.3-- 0.0 1.7---- 0.0------------
1983-06-23 16.2 23.1 5.0 1.6-- 0.0 1.7---- 0.0------------
1983-06-22 14.9 21.2 7.5 5.4-- 0.0 3.0---- 0.0------------
1983-06-21 19.4 26.3 12.2 10.0-- 0.3 4.3---- 0.0------------
1983-06-20 19.2 26.1 11.2 10.0-- 0.0 3.0---- 0.0------------
1983-06-19 16.6 21.7 12.2 8.0-- 6.7 4.3---- 0.0------------
1983-06-18 13.4 16.1 11.4 10.5-- 6.3 2.7---- 0.0------------
1983-06-17 12.4 16.6 7.0 6.0-- 6.3 2.3---- 0.4------------
1983-06-16 13.9 18.6 8.5 7.5-- 5.3 3.7---- 0.0------------
236.2 ms

 

Źródłem pochodzenia danych jest Instytut Meteorologii i Gospodarki Wodnej – Państwowy Instytut Badawczy. Dane Instytutu Meteorologii i Gospodarki Wodnej – Państwowego Instytutu Badawczego zostały przetworzone.

Dane źródłowe można odnaleźć na stronie https://dane.imgw.pl